sensor_id;sensor_type;location;lat;lon;timestamp;pressure;altitude;pressure_sealevel;temperature;humidity
24996;BME280;13016;52.162;21.034;2023-04-02T00:08:44;99438.92;;;12.11;58.17
24996;BME280;13016;52.162;21.034;2023-04-02T00:14:51;99445.92;;;12.10;58.14
24996;BME280;13016;52.162;21.034;2023-04-02T00:20:59;99448.60;;;12.28;58.18
24996;BME280;13016;52.162;21.034;2023-04-02T00:27:08;99457.41;;;12.14;57.93
24996;BME280;13016;52.162;21.034;2023-04-02T00:33:14;99461.73;;;12.04;57.95
24996;BME280;13016;52.162;21.034;2023-04-02T00:39:23;99462.00;;;12.05;58.26
24996;BME280;13016;52.162;21.034;2023-04-02T00:45:27;99462.09;;;12.11;58.20
24996;BME280;13016;52.162;21.034;2023-04-02T00:51:35;99471.31;;;11.98;58.27
24996;BME280;13016;52.162;21.034;2023-04-02T00:57:36;99481.74;;;12.00;58.50
24996;BME280;13016;52.162;21.034;2023-04-02T01:03:41;99483.42;;;11.94;58.39
24996;BME280;13016;52.162;21.034;2023-04-02T01:16:26;99479.95;;;11.89;58.90
24996;BME280;13016;52.162;21.034;2023-04-02T01:22:38;99489.09;;;11.81;59.12
24996;BME280;13016;52.162;21.034;2023-04-02T01:28:59;99490.89;;;11.87;59.34
24996;BME280;13016;52.162;21.034;2023-04-02T01:35:00;99495.75;;;11.86;59.45
24996;BME280;13016;52.162;21.034;2023-04-02T01:41:32;99500.20;;;11.92;59.41
24996;BME280;13016;52.162;21.034;2023-04-02T01:47:37;99501.60;;;11.81;59.53
24996;BME280;13016;52.162;21.034;2023-04-02T01:53:38;99501.17;;;11.80;59.74
24996;BME280;13016;52.162;21.034;2023-04-02T01:59:38;99506.31;;;11.82;59.63
24996;BME280;13016;52.162;21.034;2023-04-02T02:05:39;99512.48;;;11.80;59.82
24996;BME280;13016;52.162;21.034;2023-04-02T02:11:40;99521.98;;;11.78;59.73
24996;BME280;13016;52.162;21.034;2023-04-02T02:17:40;99526.38;;;11.70;60.01
24996;BME280;13016;52.162;21.034;2023-04-02T02:23:41;99537.76;;;11.55;60.65
24996;BME280;13016;52.162;21.034;2023-04-02T02:29:42;99546.70;;;11.54;60.78
24996;BME280;13016;52.162;21.034;2023-04-02T02:36:13;99547.75;;;11.40;60.89
24996;BME280;13016;52.162;21.034;2023-04-02T02:48:29;99561.11;;;11.09;60.45
24996;BME280;13016;52.162;21.034;2023-04-02T02:54:34;99567.56;;;11.21;60.26
24996;BME280;13016;52.162;21.034;2023-04-02T03:00:37;99573.77;;;11.12;60.53
24996;BME280;13016;52.162;21.034;2023-04-02T03:06:38;99581.57;;;11.18;60.36
24996;BME280;13016;52.162;21.034;2023-04-02T03:12:53;99585.38;;;11.26;59.89
24996;BME280;13016;52.162;21.034;2023-04-02T03:19:09;99600.99;;;11.18;59.61
24996;BME280;13016;52.162;21.034;2023-04-02T03:25:24;99603.48;;;11.16;59.62
24996;BME280;13016;52.162;21.034;2023-04-02T03:31:36;99609.66;;;11.27;59.36
24996;BME280;13016;52.162;21.034;2023-04-02T03:37:49;99619.21;;;11.20;59.40
24996;BME280;13016;52.162;21.034;2023-04-02T03:43:55;99628.44;;;11.36;59.55
24996;BME280;13016;52.162;21.034;2023-04-02T03:50:17;99639.42;;;11.33;58.97
24996;BME280;13016;52.162;21.034;2023-04-02T03:56:31;99646.40;;;11.31;59.07
24996;BME280;13016;52.162;21.034;2023-04-02T04:02:58;99653.86;;;11.26;59.02
24996;BME280;13016;52.162;21.034;2023-04-02T04:21:29;99674.17;;;11.19;59.50
24996;BME280;13016;52.162;21.034;2023-04-02T04:27:45;99683.43;;;11.07;59.71
24996;BME280;13016;52.162;21.034;2023-04-02T04:33:53;99689.17;;;11.10;59.74
24996;BME280;13016;52.162;21.034;2023-04-02T04:40:02;99694.41;;;11.13;60.02
24996;BME280;13016;52.162;21.034;2023-04-02T04:52:42;99699.98;;;10.76;61.16
24996;BME280;13016;52.162;21.034;2023-04-02T04:58:47;99716.11;;;10.79;61.59
24996;BME280;13016;52.162;21.034;2023-04-02T05:04:50;99727.11;;;10.79;61.73
24996;BME280;13016;52.162;21.034;2023-04-02T05:10:57;99737.04;;;10.68;62.05
24996;BME280;13016;52.162;21.034;2023-04-02T05:17:27;99743.75;;;10.51;62.08
24996;BME280;13016;52.162;21.034;2023-04-02T05:23:34;99745.45;;;10.62;61.52
24996;BME280;13016;52.162;21.034;2023-04-02T05:29:38;99756.45;;;10.31;61.43
24996;BME280;13016;52.162;21.034;2023-04-02T05:35:43;99767.88;;;10.26;61.05
24996;BME280;13016;52.162;21.034;2023-04-02T05:41:45;99776.66;;;10.34;60.62
24996;BME280;13016;52.162;21.034;2023-04-02T05:47:47;99782.90;;;10.41;60.21
24996;BME280;13016;52.162;21.034;2023-04-02T05:53:52;99792.18;;;10.47;60.11
24996;BME280;13016;52.162;21.034;2023-04-02T05:59:56;99800.54;;;10.51;60.12
24996;BME280;13016;52.162;21.034;2023-04-02T06:06:03;99805.25;;;10.24;60.98
24996;BME280;13016;52.162;21.034;2023-04-02T06:12:22;99813.25;;;10.15;61.71
24996;BME280;13016;52.162;21.034;2023-04-02T06:18:29;99825.83;;;10.08;61.13
24996;BME280;13016;52.162;21.034;2023-04-02T06:24:31;99843.41;;;10.22;60.87
24996;BME280;13016;52.162;21.034;2023-04-02T06:30:38;99855.38;;;10.33;60.18
24996;BME280;13016;52.162;21.034;2023-04-02T06:36:40;99854.84;;;10.04;59.68
24996;BME280;13016;52.162;21.034;2023-04-02T06:42:41;99861.70;;;9.88;59.71
24996;BME280;13016;52.162;21.034;2023-04-02T06:48:45;99872.85;;;10.01;59.17
24996;BME280;13016;52.162;21.034;2023-04-02T06:54:47;99888.42;;;9.92;59.26
24996;BME280;13016;52.162;21.034;2023-04-02T07:00:48;99889.73;;;9.85;59.19
24996;BME280;13016;52.162;21.034;2023-04-02T07:06:49;99895.02;;;9.80;59.52
24996;BME280;13016;52.162;21.034;2023-04-02T07:12:50;99897.09;;;9.73;59.85
24996;BME280;13016;52.162;21.034;2023-04-02T07:18:51;99895.92;;;9.50;60.30
24996;BME280;13016;52.162;21.034;2023-04-02T07:24:52;99907.02;;;9.50;59.64
24996;BME280;13016;52.162;21.034;2023-04-02T07:30:53;99917.14;;;9.51;59.32
24996;BME280;13016;52.162;21.034;2023-04-02T07:36:53;99931.47;;;9.42;58.93
24996;BME280;13016;52.162;21.034;2023-04-02T07:42:54;99932.27;;;9.49;58.67
24996;BME280;13016;52.162;21.034;2023-04-02T07:48:54;99946.09;;;9.53;58.34
24996;BME280;13016;52.162;21.034;2023-04-02T07:54:55;99949.52;;;9.52;58.32
24996;BME280;13016;52.162;21.034;2023-04-02T08:00:55;99955.67;;;9.57;58.29
24996;BME280;13016;52.162;21.034;2023-04-02T08:06:55;99956.89;;;9.74;58.03
24996;BME280;13016;52.162;21.034;2023-04-02T08:12:56;99972.77;;;9.95;57.51
24996;BME280;13016;52.162;21.034;2023-04-02T08:18:56;99973.46;;;10.12;56.88
24996;BME280;13016;52.162;21.034;2023-04-02T08:24:56;99980.02;;;10.11;56.49
24996;BME280;13016;52.162;21.034;2023-04-02T08:30:56;99994.80;;;10.06;56.36
24996;BME280;13016;52.162;21.034;2023-04-02T08:36:57;100002.42;;;9.92;56.59
24996;BME280;13016;52.162;21.034;2023-04-02T08:49:19;100023.76;;;10.13;55.45
24996;BME280;13016;52.162;21.034;2023-04-02T09:08:22;100051.59;;;9.91;56.42
24996;BME280;13016;52.162;21.034;2023-04-02T09:14:34;100054.88;;;9.95;56.54
24996;BME280;13016;52.162;21.034;2023-04-02T09:20:38;100060.98;;;9.93;56.85
24996;BME280;13016;52.162;21.034;2023-04-02T09:26:38;100059.13;;;9.84;57.24
24996;BME280;13016;52.162;21.034;2023-04-02T09:32:49;100059.13;;;9.84;57.35
24996;BME280;13016;52.162;21.034;2023-04-02T09:39:02;100066.14;;;10.01;57.65
24996;BME280;13016;52.162;21.034;2023-04-02T09:45:18;100080.48;;;9.96;57.43
24996;BME280;13016;52.162;21.034;2023-04-02T09:51:22;100082.15;;;10.07;57.20
24996;BME280;13016;52.162;21.034;2023-04-02T09:57:23;100086.38;;;10.12;57.15
24996;BME280;13016;52.162;21.034;2023-04-02T10:03:25;100091.05;;;10.25;56.98
24996;BME280;13016;52.162;21.034;2023-04-02T10:15:40;100110.34;;;10.29;56.89
24996;BME280;13016;52.162;21.034;2023-04-02T10:21:42;100120.52;;;10.19;56.72
24996;BME280;13016;52.162;21.034;2023-04-02T10:40:47;100139.45;;;9.98;57.55
24996;BME280;13016;52.162;21.034;2023-04-02T10:47:07;100149.94;;;10.08;57.34
24996;BME280;13016;52.162;21.034;2023-04-02T10:53:17;100165.11;;;9.96;57.44
24996;BME280;13016;52.162;21.034;2023-04-02T10:59:28;100175.80;;;9.88;57.57
24996;BME280;13016;52.162;21.034;2023-04-02T11:05:45;100188.02;;;9.96;57.74
24996;BME280;13016;52.162;21.034;2023-04-02T11:11:53;100191.33;;;10.05;57.77
24996;BME280;13016;52.162;21.034;2023-04-02T11:17:55;100198.38;;;9.85;58.45
24996;BME280;13016;52.162;21.034;2023-04-02T11:23:58;100208.23;;;9.97;58.72
24996;BME280;13016;52.162;21.034;2023-04-02T11:42:48;100234.34;;;9.58;59.54
24996;BME280;13016;52.162;21.034;2023-04-02T11:48:49;100246.00;;;9.52;59.57
24996;BME280;13016;52.162;21.034;2023-04-02T11:55:20;100257.23;;;9.65;59.08
24996;BME280;13016;52.162;21.034;2023-04-02T12:01:51;100256.80;;;9.57;58.89
24996;BME280;13016;52.162;21.034;2023-04-02T12:20:29;100274.11;;;9.86;61.27
24996;BME280;13016;52.162;21.034;2023-04-02T12:26:35;100279.09;;;9.76;61.32
24996;BME280;13016;52.162;21.034;2023-04-02T12:32:36;100283.02;;;9.60;60.81
24996;BME280;13016;52.162;21.034;2023-04-02T12:44:48;100304.88;;;9.54;61.39
24996;BME280;13016;52.162;21.034;2023-04-02T12:50:48;100316.18;;;9.32;61.87
24996;BME280;13016;52.162;21.034;2023-04-02T12:56:49;100328.93;;;9.27;62.15
24996;BME280;13016;52.162;21.034;2023-04-02T13:09:04;100332.02;;;9.50;62.15
24996;BME280;13016;52.162;21.034;2023-04-02T13:15:08;100335.52;;;9.32;61.16
24996;BME280;13016;52.162;21.034;2023-04-02T13:27:16;100346.69;;;9.56;61.57
24996;BME280;13016;52.162;21.034;2023-04-02T13:33:16;100351.39;;;9.32;62.21
24996;BME280;13016;52.162;21.034;2023-04-02T13:39:17;100363.99;;;9.30;62.19
24996;BME280;13016;52.162;21.034;2023-04-02T13:45:24;100368.99;;;9.32;62.28
24996;BME280;13016;52.162;21.034;2023-04-02T13:51:36;100361.25;;;9.12;62.54
24996;BME280;13016;52.162;21.034;2023-04-02T13:57:37;100369.14;;;9.10;63.12
24996;BME280;13016;52.162;21.034;2023-04-02T14:03:37;100370.63;;;8.89;63.85
24996;BME280;13016;52.162;21.034;2023-04-02T14:29:12;100400.91;;;9.21;64.17
24996;BME280;13016;52.162;21.034;2023-04-02T14:41:38;100420.15;;;8.94;64.18
24996;BME280;13016;52.162;21.034;2023-04-02T14:47:46;100426.10;;;8.78;64.40
24996;BME280;13016;52.162;21.034;2023-04-02T15:00:19;100439.64;;;8.98;65.15
24996;BME280;13016;52.162;21.034;2023-04-02T15:06:25;100449.41;;;8.83;65.19
24996;BME280;13016;52.162;21.034;2023-04-02T15:12:29;100456.05;;;8.71;65.35
24996;BME280;13016;52.162;21.034;2023-04-02T15:18:31;100462.70;;;8.71;65.49
24996;BME280;13016;52.162;21.034;2023-04-02T15:24:48;100477.93;;;8.49;65.31
24996;BME280;13016;52.162;21.034;2023-04-02T15:30:54;100488.38;;;8.26;65.34
24996;BME280;13016;52.162;21.034;2023-04-02T15:37:29;100493.34;;;8.25;65.59
24996;BME280;13016;52.162;21.034;2023-04-02T15:43:35;100497.29;;;8.12;65.88
24996;BME280;13016;52.162;21.034;2023-04-02T16:09:25;100541.83;;;7.89;66.46
24996;BME280;13016;52.162;21.034;2023-04-02T16:15:33;100553.35;;;7.83;66.58
24996;BME280;13016;52.162;21.034;2023-04-02T16:21:41;100558.54;;;7.88;66.47
24996;BME280;13016;52.162;21.034;2023-04-02T16:46:36;100597.63;;;7.71;66.74
24996;BME280;13016;52.162;21.034;2023-04-02T17:05:01;100617.77;;;7.61;67.03
24996;BME280;13016;52.162;21.034;2023-04-02T17:11:08;100632.11;;;7.62;66.85
24996;BME280;13016;52.162;21.034;2023-04-02T17:17:09;100633.12;;;7.51;66.86
24996;BME280;13016;52.162;21.034;2023-04-02T17:23:13;100642.16;;;7.49;67.06
24996;BME280;13016;52.162;21.034;2023-04-02T17:42:12;100667.20;;;7.78;66.93
24996;BME280;13016;52.162;21.034;2023-04-02T17:48:24;100675.17;;;7.84;66.82
24996;BME280;13016;52.162;21.034;2023-04-02T18:01:13;100682.65;;;7.93;66.80
24996;BME280;13016;52.162;21.034;2023-04-02T18:20:36;100714.23;;;7.82;65.80
24996;BME280;13016;52.162;21.034;2023-04-02T18:27:03;100720.02;;;8.02;65.63
24996;BME280;13016;52.162;21.034;2023-04-02T18:39:27;100723.94;;;8.21;64.84
24996;BME280;13016;52.162;21.034;2023-04-02T18:46:38;100733.04;;;8.17;64.45
24996;BME280;13016;52.162;21.034;2023-04-02T18:52:13;100743.26;;;8.29;63.94
24996;BME280;13016;52.162;21.034;2023-04-02T19:04:37;100754.55;;;8.28;63.56
24996;BME280;13016;52.162;21.034;2023-04-02T19:10:42;100753.73;;;8.31;63.19
24996;BME280;13016;52.162;21.034;2023-04-02T19:36:22;100769.55;;;8.57;63.09
24996;BME280;13016;52.162;21.034;2023-04-02T19:42:45;100773.61;;;8.64;63.04
24996;BME280;13016;52.162;21.034;2023-04-02T19:48:54;100779.59;;;8.64;62.47
24996;BME280;13016;52.162;21.034;2023-04-02T19:54:57;100782.78;;;8.60;61.35
24996;BME280;13016;52.162;21.034;2023-04-02T20:00:58;100784.92;;;8.67;60.89
24996;BME280;13016;52.162;21.034;2023-04-02T20:06:59;100782.40;;;8.72;60.72
24996;BME280;13016;52.162;21.034;2023-04-02T20:12:59;100788.20;;;8.72;60.27
24996;BME280;13016;52.162;21.034;2023-04-02T20:18:59;100792.39;;;8.73;59.73
24996;BME280;13016;52.162;21.034;2023-04-02T20:25:00;100795.32;;;8.81;59.40
24996;BME280;13016;52.162;21.034;2023-04-02T20:31:14;100804.25;;;8.82;58.89
24996;BME280;13016;52.162;21.034;2023-04-02T20:37:15;100807.07;;;8.93;58.93
24996;BME280;13016;52.162;21.034;2023-04-02T20:43:16;100813.07;;;8.89;58.30
24996;BME280;13016;52.162;21.034;2023-04-02T20:49:16;100814.77;;;8.94;56.99
24996;BME280;13016;52.162;21.034;2023-04-02T20:55:16;100823.90;;;8.94;55.95
24996;BME280;13016;52.162;21.034;2023-04-02T21:01:25;100833.36;;;8.80;54.24
24996;BME280;13016;52.162;21.034;2023-04-02T21:07:26;100834.69;;;8.86;53.10
24996;BME280;13016;52.162;21.034;2023-04-02T21:13:31;100834.63;;;8.94;51.97
24996;BME280;13016;52.162;21.034;2023-04-02T21:19:32;100841.61;;;8.88;50.25
24996;BME280;13016;52.162;21.034;2023-04-02T21:25:33;100840.95;;;8.87;50.20
24996;BME280;13016;52.162;21.034;2023-04-02T21:31:36;100845.23;;;8.79;49.12
24996;BME280;13016;52.162;21.034;2023-04-02T21:37:37;100850.52;;;8.71;48.07
24996;BME280;13016;52.162;21.034;2023-04-02T21:43:37;100852.77;;;8.71;47.26
24996;BME280;13016;52.162;21.034;2023-04-02T21:49:37;100860.37;;;8.67;47.15
24996;BME280;13016;52.162;21.034;2023-04-02T21:55:38;100860.24;;;8.70;46.15
24996;BME280;13016;52.162;21.034;2023-04-02T22:01:46;100872.66;;;8.55;45.34
24996;BME280;13016;52.162;21.034;2023-04-02T22:07:46;100873.80;;;8.62;45.91
24996;BME280;13016;52.162;21.034;2023-04-02T22:13:48;100879.46;;;8.65;46.49
24996;BME280;13016;52.162;21.034;2023-04-02T22:19:48;100887.77;;;8.56;45.88
24996;BME280;13016;52.162;21.034;2023-04-02T22:25:49;100894.83;;;8.44;45.76
24996;BME280;13016;52.162;21.034;2023-04-02T22:31:49;100898.98;;;8.29;45.61
24996;BME280;13016;52.162;21.034;2023-04-02T22:37:49;100904.38;;;8.17;45.87
24996;BME280;13016;52.162;21.034;2023-04-02T22:43:50;100914.21;;;8.14;45.70
24996;BME280;13016;52.162;21.034;2023-04-02T22:49:50;100909.77;;;8.15;45.86
24996;BME280;13016;52.162;21.034;2023-04-02T22:55:51;100917.48;;;8.07;45.47
24996;BME280;13016;52.162;21.034;2023-04-02T23:01:51;100911.01;;;7.77;45.11
24996;BME280;13016;52.162;21.034;2023-04-02T23:07:52;100919.11;;;7.72;44.63
24996;BME280;13016;52.162;21.034;2023-04-02T23:13:54;100914.10;;;7.61;44.61
24996;BME280;13016;52.162;21.034;2023-04-02T23:19:54;100922.52;;;7.53;44.82
24996;BME280;13016;52.162;21.034;2023-04-02T23:26:06;100927.04;;;7.54;44.34
24996;BME280;13016;52.162;21.034;2023-04-02T23:32:06;100928.52;;;7.43;44.46
24996;BME280;13016;52.162;21.034;2023-04-02T23:38:07;100927.34;;;7.50;44.50
24996;BME280;13016;52.162;21.034;2023-04-02T23:44:08;100937.36;;;7.50;44.19
24996;BME280;13016;52.162;21.034;2023-04-02T23:50:08;100939.98;;;7.33;43.91
24996;BME280;13016;52.162;21.034;2023-04-02T23:56:09;100948.30;;;7.26;44.10
